Portada
METAR-TAF:

METAR-TAF

Aeroports :

Dare County Regional Airport

Manteo, Carolina del Nord, Estats Units d'Amèrica

latitud: 35-55N, longitud: 075-42W, altitud: 4 m

Observació

L'informe es va fer fa 39 minuts, a les 03:55 UTC
Vent 5 kt del Est
Temperatura 23°C
Humitat 89%
Pressió 1014 hPa
Visibilitat: 16.1 km
Cel clar

METAR: KMQI 050355Z AUTO 09005KT 10SM CLR 23/21 A2995 RMK AO2 T02320214

Hora: 00:34 (04:34 UTC)


TAF: manca

Observacions i pronòstics meteorològics de més de 4000 aeroports (METAR i TAF).

Les estacions disponibles són els punts grocs i vermells al mapa.

Posi el ratolí al punt desitjat per veure el nom de l'estació.

Feu clic per veure les observacions i els pronòstics meteorològics.

Per canviar el mapa: feu clic els botons verds amb una creu de color negre per apropar; al botó verd amb un guió per allunyar la imatge; o en les fletxes verdes per a mapes adjacents.


METAR-TAF: